sensor_id;sensor_type;location;lat;lon;timestamp;temperature;humidity
1225;DHT22;602;48.000;7.840;2022-07-01T00:00:44;17.40;99.90
1225;DHT22;602;48.000;7.840;2022-07-01T00:03:12;17.50;99.90
1225;DHT22;602;48.000;7.840;2022-07-01T00:05:39;17.50;99.90
1225;DHT22;602;48.000;7.840;2022-07-01T00:08:06;17.50;99.90
1225;DHT22;602;48.000;7.840;2022-07-01T00:10:33;17.50;99.90
1225;DHT22;602;48.000;7.840;2022-07-01T00:13:01;17.50;99.90
1225;DHT22;602;48.000;7.840;2022-07-01T00:15:28;17.40;99.90
1225;DHT22;602;48.000;7.840;2022-07-01T00:17:57;17.40;99.90
1225;DHT22;602;48.000;7.840;2022-07-01T00:20:25;17.30;99.90
1225;DHT22;602;48.000;7.840;2022-07-01T00:22:52;17.40;99.90
1225;DHT22;602;48.000;7.840;2022-07-01T00:25:19;17.20;99.90
1225;DHT22;602;48.000;7.840;2022-07-01T00:27:46;17.20;99.90
1225;DHT22;602;48.000;7.840;2022-07-01T00:30:14;17.20;99.90
1225;DHT22;602;48.000;7.840;2022-07-01T00:32:41;17.10;99.90
1225;DHT22;602;48.000;7.840;2022-07-01T00:35:08;17.10;99.90
1225;DHT22;602;48.000;7.840;2022-07-01T00:37:38;17.20;99.90
1225;DHT22;602;48.000;7.840;2022-07-01T00:40:06;17.20;99.90
1225;DHT22;602;48.000;7.840;2022-07-01T00:42:38;17.20;99.90
1225;DHT22;602;48.000;7.840;2022-07-01T00:45:07;17.10;99.90
1225;DHT22;602;48.000;7.840;2022-07-01T00:47:34;17.10;99.90
1225;DHT22;602;48.000;7.840;2022-07-01T00:50:01;17.10;99.90
1225;DHT22;602;48.000;7.840;2022-07-01T00:52:28;17.20;99.90
1225;DHT22;602;48.000;7.840;2022-07-01T00:54:58;17.20;99.90
1225;DHT22;602;48.000;7.840;2022-07-01T00:57:30;17.20;99.90
1225;DHT22;602;48.000;7.840;2022-07-01T00:59:57;17.20;99.90
1225;DHT22;602;48.000;7.840;2022-07-01T01:02:24;17.20;99.90
1225;DHT22;602;48.000;7.840;2022-07-01T01:04:51;17.30;99.90
1225;DHT22;602;48.000;7.840;2022-07-01T01:07:18;17.30;99.90
1225;DHT22;602;48.000;7.840;2022-07-01T01:09:45;17.20;99.90
1225;DHT22;602;48.000;7.840;2022-07-01T01:12:13;17.10;99.90
1225;DHT22;602;48.000;7.840;2022-07-01T01:14:44;17.20;99.90
1225;DHT22;602;48.000;7.840;2022-07-01T01:17:11;17.20;99.90
1225;DHT22;602;48.000;7.840;2022-07-01T01:19:38;17.20;99.90
1225;DHT22;602;48.000;7.840;2022-07-01T01:22:06;17.10;99.90
1225;DHT22;602;48.000;7.840;2022-07-01T01:24:33;17.20;99.90
1225;DHT22;602;48.000;7.840;2022-07-01T01:26:59;17.20;99.90
1225;DHT22;602;48.000;7.840;2022-07-01T01:29:26;17.10;99.90
1225;DHT22;602;48.000;7.840;2022-07-01T01:31:53;17.10;99.90
1225;DHT22;602;48.000;7.840;2022-07-01T01:34:20;17.10;99.90
1225;DHT22;602;48.000;7.840;2022-07-01T01:36:47;17.10;99.90
1225;DHT22;602;48.000;7.840;2022-07-01T01:39:15;17.20;99.90
1225;DHT22;602;48.000;7.840;2022-07-01T01:41:42;17.10;99.90
1225;DHT22;602;48.000;7.840;2022-07-01T01:44:09;17.00;99.90
1225;DHT22;602;48.000;7.840;2022-07-01T01:46:36;17.00;99.90
1225;DHT22;602;48.000;7.840;2022-07-01T01:49:04;17.00;99.90
1225;DHT22;602;48.000;7.840;2022-07-01T01:51:31;17.10;99.90
1225;DHT22;602;48.000;7.840;2022-07-01T01:53:59;17.10;99.90
1225;DHT22;602;48.000;7.840;2022-07-01T01:56:27;17.10;99.90
1225;DHT22;602;48.000;7.840;2022-07-01T01:58:55;17.10;99.90
1225;DHT22;602;48.000;7.840;2022-07-01T02:01:22;17.10;99.90
1225;DHT22;602;48.000;7.840;2022-07-01T02:03:50;17.10;99.90
1225;DHT22;602;48.000;7.840;2022-07-01T02:06:18;17.10;99.90
1225;DHT22;602;48.000;7.840;2022-07-01T02:08:45;17.00;99.90
1225;DHT22;602;48.000;7.840;2022-07-01T02:11:13;17.10;99.90
1225;DHT22;602;48.000;7.840;2022-07-01T02:13:42;17.10;99.90
1225;DHT22;602;48.000;7.840;2022-07-01T02:19:32;17.20;99.90
1225;DHT22;602;48.000;7.840;2022-07-01T02:21:59;17.30;99.90
1225;DHT22;602;48.000;7.840;2022-07-01T02:24:26;17.30;99.90
1225;DHT22;602;48.000;7.840;2022-07-01T02:26:53;17.20;99.90
1225;DHT22;602;48.000;7.840;2022-07-01T02:29:21;17.30;99.90
1225;DHT22;602;48.000;7.840;2022-07-01T02:31:48;17.20;99.90
1225;DHT22;602;48.000;7.840;2022-07-01T02:34:15;17.20;99.90
1225;DHT22;602;48.000;7.840;2022-07-01T02:36:42;17.00;99.90
1225;DHT22;602;48.000;7.840;2022-07-01T02:39:09;17.10;99.90
1225;DHT22;602;48.000;7.840;2022-07-01T02:41:36;17.00;99.90
1225;DHT22;602;48.000;7.840;2022-07-01T02:44:24;17.10;99.90
1225;DHT22;602;48.000;7.840;2022-07-01T02:46:51;17.10;99.90
1225;DHT22;602;48.000;7.840;2022-07-01T02:49:18;17.10;99.90
1225;DHT22;602;48.000;7.840;2022-07-01T02:51:45;17.10;99.90
1225;DHT22;602;48.000;7.840;2022-07-01T02:54:11;17.20;99.90
1225;DHT22;602;48.000;7.840;2022-07-01T02:56:38;17.10;99.90
1225;DHT22;602;48.000;7.840;2022-07-01T02:59:05;17.20;99.90
1225;DHT22;602;48.000;7.840;2022-07-01T03:01:33;17.20;99.90
1225;DHT22;602;48.000;7.840;2022-07-01T03:04:00;17.10;99.90
1225;DHT22;602;48.000;7.840;2022-07-01T03:06:27;17.00;99.90
1225;DHT22;602;48.000;7.840;2022-07-01T03:08:54;17.00;99.90
1225;DHT22;602;48.000;7.840;2022-07-01T03:11:21;17.00;99.90
1225;DHT22;602;48.000;7.840;2022-07-01T03:13:48;17.00;99.90
1225;DHT22;602;48.000;7.840;2022-07-01T03:16:15;17.00;99.90
1225;DHT22;602;48.000;7.840;2022-07-01T03:18:43;17.00;99.90
1225;DHT22;602;48.000;7.840;2022-07-01T03:21:10;17.00;99.90
1225;DHT22;602;48.000;7.840;2022-07-01T03:23:36;17.00;99.90
1225;DHT22;602;48.000;7.840;2022-07-01T03:26:03;17.00;99.90
1225;DHT22;602;48.000;7.840;2022-07-01T03:28:30;17.00;99.90
1225;DHT22;602;48.000;7.840;2022-07-01T03:30:59;17.10;99.90
1225;DHT22;602;48.000;7.840;2022-07-01T03:33:26;17.10;99.90
1225;DHT22;602;48.000;7.840;2022-07-01T03:35:54;17.10;99.90
1225;DHT22;602;48.000;7.840;2022-07-01T03:38:21;17.10;99.90
1225;DHT22;602;48.000;7.840;2022-07-01T03:40:48;17.10;99.90
1225;DHT22;602;48.000;7.840;2022-07-01T03:43:15;17.00;99.90
1225;DHT22;602;48.000;7.840;2022-07-01T03:45:41;16.90;99.90
1225;DHT22;602;48.000;7.840;2022-07-01T03:48:08;16.90;99.90
1225;DHT22;602;48.000;7.840;2022-07-01T03:50:36;16.90;99.90
1225;DHT22;602;48.000;7.840;2022-07-01T03:53:04;16.80;99.90
1225;DHT22;602;48.000;7.840;2022-07-01T03:55:49;16.70;99.90
1225;DHT22;602;48.000;7.840;2022-07-01T03:58:15;16.50;99.90
1225;DHT22;602;48.000;7.840;2022-07-01T04:00:42;16.40;99.90
1225;DHT22;602;48.000;7.840;2022-07-01T04:03:09;16.30;99.90
1225;DHT22;602;48.000;7.840;2022-07-01T04:05:36;16.40;99.90
1225;DHT22;602;48.000;7.840;2022-07-01T04:08:07;16.30;99.90
1225;DHT22;602;48.000;7.840;2022-07-01T04:10:37;16.40;99.90
1225;DHT22;602;48.000;7.840;2022-07-01T04:13:05;16.30;99.90
1225;DHT22;602;48.000;7.840;2022-07-01T04:15:32;16.30;99.90
1225;DHT22;602;48.000;7.840;2022-07-01T04:17:59;16.20;99.90
1225;DHT22;602;48.000;7.840;2022-07-01T04:20:27;16.10;99.90
1225;DHT22;602;48.000;7.840;2022-07-01T04:22:54;16.10;99.90
1225;DHT22;602;48.000;7.840;2022-07-01T04:25:22;16.10;99.90
1225;DHT22;602;48.000;7.840;2022-07-01T04:27:49;16.20;99.90
1225;DHT22;602;48.000;7.840;2022-07-01T04:30:16;16.20;99.90
1225;DHT22;602;48.000;7.840;2022-07-01T04:32:43;16.20;99.90
1225;DHT22;602;48.000;7.840;2022-07-01T04:35:10;16.40;99.90
1225;DHT22;602;48.000;7.840;2022-07-01T04:37:38;16.30;99.90
1225;DHT22;602;48.000;7.840;2022-07-01T04:40:06;16.30;99.90
1225;DHT22;602;48.000;7.840;2022-07-01T04:42:35;16.30;99.90
1225;DHT22;602;48.000;7.840;2022-07-01T04:45:02;16.30;99.90
1225;DHT22;602;48.000;7.840;2022-07-01T04:47:29;16.40;99.90
1225;DHT22;602;48.000;7.840;2022-07-01T04:49:58;16.40;99.90
1225;DHT22;602;48.000;7.840;2022-07-01T04:52:27;16.40;99.90
1225;DHT22;602;48.000;7.840;2022-07-01T04:54:54;16.30;99.90
1225;DHT22;602;48.000;7.840;2022-07-01T04:57:21;16.30;99.90
1225;DHT22;602;48.000;7.840;2022-07-01T04:59:49;16.20;99.90
1225;DHT22;602;48.000;7.840;2022-07-01T05:02:16;16.00;99.90
1225;DHT22;602;48.000;7.840;2022-07-01T05:04:43;16.00;99.90
1225;DHT22;602;48.000;7.840;2022-07-01T05:07:10;16.00;99.90
1225;DHT22;602;48.000;7.840;2022-07-01T05:09:54;16.00;99.90
1225;DHT22;602;48.000;7.840;2022-07-01T05:12:21;16.00;99.90
1225;DHT22;602;48.000;7.840;2022-07-01T05:14:50;16.00;99.90
1225;DHT22;602;48.000;7.840;2022-07-01T05:17:17;15.90;99.90
1225;DHT22;602;48.000;7.840;2022-07-01T05:19:44;15.90;99.90
1225;DHT22;602;48.000;7.840;2022-07-01T05:22:28;16.00;99.90
1225;DHT22;602;48.000;7.840;2022-07-01T05:24:55;16.10;99.90
1225;DHT22;602;48.000;7.840;2022-07-01T05:27:22;16.10;99.90
1225;DHT22;602;48.000;7.840;2022-07-01T05:29:51;16.00;99.90
1225;DHT22;602;48.000;7.840;2022-07-01T05:32:19;16.00;99.90
1225;DHT22;602;48.000;7.840;2022-07-01T05:34:46;16.00;99.90
1225;DHT22;602;48.000;7.840;2022-07-01T05:37:12;16.10;99.90
1225;DHT22;602;48.000;7.840;2022-07-01T05:39:42;16.20;99.90
1225;DHT22;602;48.000;7.840;2022-07-01T05:42:09;16.20;99.90
1225;DHT22;602;48.000;7.840;2022-07-01T05:44:36;16.20;99.90
1225;DHT22;602;48.000;7.840;2022-07-01T05:47:04;16.20;99.90
1225;DHT22;602;48.000;7.840;2022-07-01T05:49:32;16.20;99.90
1225;DHT22;602;48.000;7.840;2022-07-01T05:51:59;16.30;99.90
1225;DHT22;602;48.000;7.840;2022-07-01T05:54:26;16.30;99.90
1225;DHT22;602;48.000;7.840;2022-07-01T05:56:53;16.40;99.90
1225;DHT22;602;48.000;7.840;2022-07-01T05:59:19;16.50;99.90
1225;DHT22;602;48.000;7.840;2022-07-01T06:01:46;16.50;99.90
1225;DHT22;602;48.000;7.840;2022-07-01T06:04:17;16.50;99.90
1225;DHT22;602;48.000;7.840;2022-07-01T06:06:44;16.50;99.90
1225;DHT22;602;48.000;7.840;2022-07-01T06:09:12;16.40;99.90
1225;DHT22;602;48.000;7.840;2022-07-01T06:11:39;16.50;99.90
1225;DHT22;602;48.000;7.840;2022-07-01T06:14:06;16.50;99.90
1225;DHT22;602;48.000;7.840;2022-07-01T06:16:33;16.50;99.90
1225;DHT22;602;48.000;7.840;2022-07-01T06:18:59;16.40;99.90
1225;DHT22;602;48.000;7.840;2022-07-01T06:21:28;16.40;99.90
1225;DHT22;602;48.000;7.840;2022-07-01T06:23:56;16.40;99.90
1225;DHT22;602;48.000;7.840;2022-07-01T06:26:23;16.30;99.90
1225;DHT22;602;48.000;7.840;2022-07-01T06:28:50;16.30;99.90
1225;DHT22;602;48.000;7.840;2022-07-01T06:31:17;16.20;99.90
1225;DHT22;602;48.000;7.840;2022-07-01T06:33:43;16.30;99.90
1225;DHT22;602;48.000;7.840;2022-07-01T06:36:10;16.30;99.90
1225;DHT22;602;48.000;7.840;2022-07-01T06:38:41;16.30;99.90
1225;DHT22;602;48.000;7.840;2022-07-01T06:41:08;16.30;99.90
1225;DHT22;602;48.000;7.840;2022-07-01T06:43:52;16.20;99.90
1225;DHT22;602;48.000;7.840;2022-07-01T06:46:19;16.20;99.90
1225;DHT22;602;48.000;7.840;2022-07-01T06:48:46;16.20;99.90
1225;DHT22;602;48.000;7.840;2022-07-01T06:51:13;16.20;99.90
1225;DHT22;602;48.000;7.840;2022-07-01T06:53:42;16.30;99.90
1225;DHT22;602;48.000;7.840;2022-07-01T06:56:10;16.30;99.90
1225;DHT22;602;48.000;7.840;2022-07-01T06:58:37;16.30;99.90
1225;DHT22;602;48.000;7.840;2022-07-01T07:01:04;16.30;99.90
1225;DHT22;602;48.000;7.840;2022-07-01T07:03:32;16.30;99.90
1225;DHT22;602;48.000;7.840;2022-07-01T07:05:59;16.40;99.90
1225;DHT22;602;48.000;7.840;2022-07-01T07:08:27;16.40;99.90
1225;DHT22;602;48.000;7.840;2022-07-01T07:10:55;16.30;99.90
1225;DHT22;602;48.000;7.840;2022-07-01T07:13:22;16.40;99.90
1225;DHT22;602;48.000;7.840;2022-07-01T07:15:49;16.40;99.90
1225;DHT22;602;48.000;7.840;2022-07-01T07:18:16;16.40;99.90
1225;DHT22;602;48.000;7.840;2022-07-01T07:20:43;16.40;99.90
1225;DHT22;602;48.000;7.840;2022-07-01T07:23:13;16.40;99.90
1225;DHT22;602;48.000;7.840;2022-07-01T07:25:40;16.30;99.90
1225;DHT22;602;48.000;7.840;2022-07-01T07:28:08;16.30;99.90
1225;DHT22;602;48.000;7.840;2022-07-01T07:30:35;16.30;99.90
1225;DHT22;602;48.000;7.840;2022-07-01T07:33:02;16.40;99.90
1225;DHT22;602;48.000;7.840;2022-07-01T07:35:28;16.40;99.90
1225;DHT22;602;48.000;7.840;2022-07-01T07:37:55;16.40;99.90
1225;DHT22;602;48.000;7.840;2022-07-01T07:40:22;16.50;99.90
1225;DHT22;602;48.000;7.840;2022-07-01T07:42:50;16.50;99.90
1225;DHT22;602;48.000;7.840;2022-07-01T07:45:18;16.60;99.90
1225;DHT22;602;48.000;7.840;2022-07-01T07:47:46;16.60;99.90
1225;DHT22;602;48.000;7.840;2022-07-01T07:50:14;16.60;99.90
1225;DHT22;602;48.000;7.840;2022-07-01T07:52:41;16.60;99.90
1225;DHT22;602;48.000;7.840;2022-07-01T07:55:09;16.60;99.90
1225;DHT22;602;48.000;7.840;2022-07-01T07:57:36;16.60;99.90
1225;DHT22;602;48.000;7.840;2022-07-01T08:00:04;16.70;99.90
1225;DHT22;602;48.000;7.840;2022-07-01T08:02:32;16.80;99.90
1225;DHT22;602;48.000;7.840;2022-07-01T08:04:59;16.80;99.90
1225;DHT22;602;48.000;7.840;2022-07-01T08:07:26;16.80;99.90
1225;DHT22;602;48.000;7.840;2022-07-01T08:09:53;16.80;99.90
1225;DHT22;602;48.000;7.840;2022-07-01T08:12:21;16.80;99.90
1225;DHT22;602;48.000;7.840;2022-07-01T08:14:48;16.90;99.90
1225;DHT22;602;48.000;7.840;2022-07-01T08:17:15;16.80;99.90
1225;DHT22;602;48.000;7.840;2022-07-01T08:19:43;16.80;99.90
1225;DHT22;602;48.000;7.840;2022-07-01T08:22:10;17.00;99.90
1225;DHT22;602;48.000;7.840;2022-07-01T08:24:36;17.10;99.90
1225;DHT22;602;48.000;7.840;2022-07-01T08:27:04;17.10;99.90
1225;DHT22;602;48.000;7.840;2022-07-01T08:29:31;17.20;99.90
1225;DHT22;602;48.000;7.840;2022-07-01T08:31:58;17.30;99.90
1225;DHT22;602;48.000;7.840;2022-07-01T08:34:24;17.30;99.90
1225;DHT22;602;48.000;7.840;2022-07-01T08:36:53;17.40;99.90
1225;DHT22;602;48.000;7.840;2022-07-01T08:39:21;17.40;99.90
1225;DHT22;602;48.000;7.840;2022-07-01T08:41:48;17.30;99.90
1225;DHT22;602;48.000;7.840;2022-07-01T08:44:15;17.30;99.90
1225;DHT22;602;48.000;7.840;2022-07-01T08:46:41;17.40;99.90
1225;DHT22;602;48.000;7.840;2022-07-01T08:49:08;17.40;99.90
1225;DHT22;602;48.000;7.840;2022-07-01T08:51:35;17.50;99.90
1225;DHT22;602;48.000;7.840;2022-07-01T08:54:03;17.50;99.90
1225;DHT22;602;48.000;7.840;2022-07-01T08:56:30;17.60;99.90
1225;DHT22;602;48.000;7.840;2022-07-01T08:59:12;17.70;99.90
1225;DHT22;602;48.000;7.840;2022-07-01T09:01:39;17.80;99.90
1225;DHT22;602;48.000;7.840;2022-07-01T09:04:14;17.80;99.90
1225;DHT22;602;48.000;7.840;2022-07-01T09:06:41;17.80;99.90
1225;DHT22;602;48.000;7.840;2022-07-01T09:09:13;17.90;99.90
1225;DHT22;602;48.000;7.840;2022-07-01T09:11:44;18.10;99.90
1225;DHT22;602;48.000;7.840;2022-07-01T09:14:13;18.10;99.90
1225;DHT22;602;48.000;7.840;2022-07-01T09:16:41;18.20;99.90
1225;DHT22;602;48.000;7.840;2022-07-01T09:19:08;18.30;99.90
1225;DHT22;602;48.000;7.840;2022-07-01T09:21:36;18.50;99.90
1225;DHT22;602;48.000;7.840;2022-07-01T09:24:04;18.60;99.90
1225;DHT22;602;48.000;7.840;2022-07-01T09:26:32;18.60;99.90
1225;DHT22;602;48.000;7.840;2022-07-01T09:29:00;18.60;99.90
1225;DHT22;602;48.000;7.840;2022-07-01T09:31:33;18.70;99.90
1225;DHT22;602;48.000;7.840;2022-07-01T09:36:26;18.80;99.90
1225;DHT22;602;48.000;7.840;2022-07-01T09:38:53;18.70;99.90
1225;DHT22;602;48.000;7.840;2022-07-01T09:41:23;18.80;99.90
1225;DHT22;602;48.000;7.840;2022-07-01T09:43:51;19.00;99.90
1225;DHT22;602;48.000;7.840;2022-07-01T09:46:18;19.30;99.90
1225;DHT22;602;48.000;7.840;2022-07-01T09:48:45;19.50;99.90
1225;DHT22;602;48.000;7.840;2022-07-01T09:51:13;19.70;99.90
1225;DHT22;602;48.000;7.840;2022-07-01T09:53:41;19.90;99.90
1225;DHT22;602;48.000;7.840;2022-07-01T09:56:08;20.20;99.90
1225;DHT22;602;48.000;7.840;2022-07-01T09:58:35;20.10;99.90
1225;DHT22;602;48.000;7.840;2022-07-01T10:01:08;20.10;99.90
1225;DHT22;602;48.000;7.840;2022-07-01T10:03:37;20.10;99.90
1225;DHT22;602;48.000;7.840;2022-07-01T10:06:31;20.30;99.90
1225;DHT22;602;48.000;7.840;2022-07-01T10:12:23;20.50;99.90
1225;DHT22;602;48.000;7.840;2022-07-01T10:14:53;20.60;99.90
1225;DHT22;602;48.000;7.840;2022-07-01T10:17:29;20.40;99.90
1225;DHT22;602;48.000;7.840;2022-07-01T10:19:56;20.50;99.90
1225;DHT22;602;48.000;7.840;2022-07-01T10:22:25;20.60;99.90
1225;DHT22;602;48.000;7.840;2022-07-01T10:24:53;20.60;99.90
1225;DHT22;602;48.000;7.840;2022-07-01T10:27:21;20.90;99.90
1225;DHT22;602;48.000;7.840;2022-07-01T10:29:48;21.40;99.90
1225;DHT22;602;48.000;7.840;2022-07-01T10:32:27;21.70;99.90
1225;DHT22;602;48.000;7.840;2022-07-01T10:35:04;21.90;99.90
1225;DHT22;602;48.000;7.840;2022-07-01T10:37:31;22.30;99.90
1225;DHT22;602;48.000;7.840;2022-07-01T10:39:58;22.40;99.90
1225;DHT22;602;48.000;7.840;2022-07-01T10:42:30;22.40;99.90
1225;DHT22;602;48.000;7.840;2022-07-01T10:45:02;22.20;99.90
1225;DHT22;602;48.000;7.840;2022-07-01T10:47:31;22.40;99.90
1225;DHT22;602;48.000;7.840;2022-07-01T10:50:08;22.40;99.90
1225;DHT22;602;48.000;7.840;2022-07-01T10:52:36;22.70;99.90
1225;DHT22;602;48.000;7.840;2022-07-01T10:55:06;23.00;99.90
1225;DHT22;602;48.000;7.840;2022-07-01T10:57:39;23.10;99.90
1225;DHT22;602;48.000;7.840;2022-07-01T11:00:29;23.10;99.90
1225;DHT22;602;48.000;7.840;2022-07-01T11:03:17;23.20;99.90
1225;DHT22;602;48.000;7.840;2022-07-01T11:05:46;22.90;99.90
1225;DHT22;602;48.000;7.840;2022-07-01T11:08:13;23.00;99.90
1225;DHT22;602;48.000;7.840;2022-07-01T11:10:40;23.00;99.90
1225;DHT22;602;48.000;7.840;2022-07-01T11:13:08;23.10;99.90
1225;DHT22;602;48.000;7.840;2022-07-01T11:15:38;23.00;99.90
1225;DHT22;602;48.000;7.840;2022-07-01T11:18:06;23.00;99.90
1225;DHT22;602;48.000;7.840;2022-07-01T11:20:35;23.30;99.90
1225;DHT22;602;48.000;7.840;2022-07-01T11:23:01;23.40;99.90
1225;DHT22;602;48.000;7.840;2022-07-01T11:25:30;23.50;99.90
1225;DHT22;602;48.000;7.840;2022-07-01T11:27:57;23.50;99.90
1225;DHT22;602;48.000;7.840;2022-07-01T11:30:24;23.80;99.90
1225;DHT22;602;48.000;7.840;2022-07-01T11:32:53;23.80;99.90
1225;DHT22;602;48.000;7.840;2022-07-01T11:35:22;23.90;99.90
1225;DHT22;602;48.000;7.840;2022-07-01T11:38:12;24.20;99.90
1225;DHT22;602;48.000;7.840;2022-07-01T11:40:58;24.50;99.90
1225;DHT22;602;48.000;7.840;2022-07-01T11:43:26;25.00;99.90
1225;DHT22;602;48.000;7.840;2022-07-01T11:45:54;24.90;99.90
1225;DHT22;602;48.000;7.840;2022-07-01T11:48:32;25.20;99.90
1225;DHT22;602;48.000;7.840;2022-07-01T11:51:00;25.70;99.90
1225;DHT22;602;48.000;7.840;2022-07-01T11:53:29;26.10;99.90
1225;DHT22;602;48.000;7.840;2022-07-01T11:55:56;26.30;99.90
1225;DHT22;602;48.000;7.840;2022-07-01T11:58:23;26.30;99.90
1225;DHT22;602;48.000;7.840;2022-07-01T12:00:50;26.30;99.90
1225;DHT22;602;48.000;7.840;2022-07-01T12:03:29;26.50;99.90
1225;DHT22;602;48.000;7.840;2022-07-01T12:05:57;25.90;99.90
1225;DHT22;602;48.000;7.840;2022-07-01T12:08:25;25.60;99.90
1225;DHT22;602;48.000;7.840;2022-07-01T12:10:53;25.90;99.90
1225;DHT22;602;48.000;7.840;2022-07-01T12:13:24;25.90;99.90
1225;DHT22;602;48.000;7.840;2022-07-01T12:15:51;25.70;99.90
1225;DHT22;602;48.000;7.840;2022-07-01T12:18:18;25.50;99.90
1225;DHT22;602;48.000;7.840;2022-07-01T12:20:49;25.30;99.90
1225;DHT22;602;48.000;7.840;2022-07-01T12:23:16;25.30;99.90
1225;DHT22;602;48.000;7.840;2022-07-01T12:25:50;25.00;99.90
1225;DHT22;602;48.000;7.840;2022-07-01T12:28:29;24.90;99.90
1225;DHT22;602;48.000;7.840;2022-07-01T12:31:01;24.60;99.90
1225;DHT22;602;48.000;7.840;2022-07-01T12:33:28;24.40;99.90
1225;DHT22;602;48.000;7.840;2022-07-01T12:35:55;24.70;99.90
1225;DHT22;602;48.000;7.840;2022-07-01T12:38:22;24.80;99.90
1225;DHT22;602;48.000;7.840;2022-07-01T12:40:49;25.00;99.90
1225;DHT22;602;48.000;7.840;2022-07-01T12:43:25;25.40;99.90
1225;DHT22;602;48.000;7.840;2022-07-01T12:45:55;25.20;99.90
1225;DHT22;602;48.000;7.840;2022-07-01T12:48:22;25.30;99.90
1225;DHT22;602;48.000;7.840;2022-07-01T12:50:52;25.70;99.90
1225;DHT22;602;48.000;7.840;2022-07-01T12:53:21;26.10;99.90
1225;DHT22;602;48.000;7.840;2022-07-01T12:55:50;25.80;99.90
1225;DHT22;602;48.000;7.840;2022-07-01T12:58:18;26.20;99.90
1225;DHT22;602;48.000;7.840;2022-07-01T13:00:48;26.60;99.90
1225;DHT22;602;48.000;7.840;2022-07-01T13:03:19;26.80;99.90
1225;DHT22;602;48.000;7.840;2022-07-01T13:05:46;27.10;99.90
1225;DHT22;602;48.000;7.840;2022-07-01T13:08:14;27.30;99.90
1225;DHT22;602;48.000;7.840;2022-07-01T13:10:41;27.50;99.90
1225;DHT22;602;48.000;7.840;2022-07-01T13:13:08;27.80;99.90
1225;DHT22;602;48.000;7.840;2022-07-01T13:15:35;28.00;99.90
1225;DHT22;602;48.000;7.840;2022-07-01T13:18:04;27.60;99.90
1225;DHT22;602;48.000;7.840;2022-07-01T13:20:32;27.40;99.90
1225;DHT22;602;48.000;7.840;2022-07-01T13:22:58;27.50;99.90
1225;DHT22;602;48.000;7.840;2022-07-01T13:25:26;27.60;99.90
1225;DHT22;602;48.000;7.840;2022-07-01T13:27:53;27.60;99.90
1225;DHT22;602;48.000;7.840;2022-07-01T13:30:20;27.40;99.90
1225;DHT22;602;48.000;7.840;2022-07-01T13:32:47;27.40;99.90
1225;DHT22;602;48.000;7.840;2022-07-01T13:35:20;27.30;99.90
1225;DHT22;602;48.000;7.840;2022-07-01T13:37:47;27.40;99.90
1225;DHT22;602;48.000;7.840;2022-07-01T13:40:14;26.70;99.90
1225;DHT22;602;48.000;7.840;2022-07-01T13:42:41;26.50;99.90
1225;DHT22;602;48.000;7.840;2022-07-01T13:45:08;26.50;99.90
1225;DHT22;602;48.000;7.840;2022-07-01T13:47:36;26.60;99.90
1225;DHT22;602;48.000;7.840;2022-07-01T13:50:04;26.80;99.90
1225;DHT22;602;48.000;7.840;2022-07-01T13:52:32;26.50;99.90
1225;DHT22;602;48.000;7.840;2022-07-01T13:54:59;26.50;99.90
1225;DHT22;602;48.000;7.840;2022-07-01T13:57:26;26.60;99.90
1225;DHT22;602;48.000;7.840;2022-07-01T13:59:53;26.60;99.90
1225;DHT22;602;48.000;7.840;2022-07-01T14:02:20;26.70;99.90
1225;DHT22;602;48.000;7.840;2022-07-01T14:04:48;26.50;99.90
1225;DHT22;602;48.000;7.840;2022-07-01T14:07:14;26.30;99.90
1225;DHT22;602;48.000;7.840;2022-07-01T14:09:43;26.30;99.90
1225;DHT22;602;48.000;7.840;2022-07-01T14:12:10;26.20;99.90
1225;DHT22;602;48.000;7.840;2022-07-01T14:14:37;26.10;99.90
1225;DHT22;602;48.000;7.840;2022-07-01T14:17:04;26.20;99.90
1225;DHT22;602;48.000;7.840;2022-07-01T14:19:31;26.10;99.90
1225;DHT22;602;48.000;7.840;2022-07-01T14:21:59;26.10;99.90
1225;DHT22;602;48.000;7.840;2022-07-01T14:24:26;26.00;99.90
1225;DHT22;602;48.000;7.840;2022-07-01T14:26:54;26.00;99.90
1225;DHT22;602;48.000;7.840;2022-07-01T14:29:21;26.10;99.90
1225;DHT22;602;48.000;7.840;2022-07-01T14:31:48;25.90;99.90
1225;DHT22;602;48.000;7.840;2022-07-01T14:34:15;25.80;99.90
1225;DHT22;602;48.000;7.840;2022-07-01T14:36:42;25.80;99.90
1225;DHT22;602;48.000;7.840;2022-07-01T14:39:09;25.80;99.90
1225;DHT22;602;48.000;7.840;2022-07-01T14:41:35;25.90;99.90
1225;DHT22;602;48.000;7.840;2022-07-01T14:44:04;25.90;99.90
1225;DHT22;602;48.000;7.840;2022-07-01T14:46:31;25.80;99.90
1225;DHT22;602;48.000;7.840;2022-07-01T14:48:58;25.80;99.90
1225;DHT22;602;48.000;7.840;2022-07-01T14:51:25;25.80;99.90
1225;DHT22;602;48.000;7.840;2022-07-01T14:53:52;25.70;99.90
1225;DHT22;602;48.000;7.840;2022-07-01T14:56:18;25.60;99.90
1225;DHT22;602;48.000;7.840;2022-07-01T14:58:45;25.70;99.90
1225;DHT22;602;48.000;7.840;2022-07-01T15:01:14;25.80;99.90
1225;DHT22;602;48.000;7.840;2022-07-01T15:03:41;25.70;99.90
1225;DHT22;602;48.000;7.840;2022-07-01T15:06:08;25.70;99.90
1225;DHT22;602;48.000;7.840;2022-07-01T15:08:35;25.50;99.90
1225;DHT22;602;48.000;7.840;2022-07-01T15:11:02;25.50;99.90
1225;DHT22;602;48.000;7.840;2022-07-01T15:13:30;25.50;99.90
1225;DHT22;602;48.000;7.840;2022-07-01T15:15:58;25.60;99.90
1225;DHT22;602;48.000;7.840;2022-07-01T15:18:26;25.50;99.90
1225;DHT22;602;48.000;7.840;2022-07-01T15:20:53;25.60;99.90
1225;DHT22;602;48.000;7.840;2022-07-01T15:23:20;25.50;99.90
1225;DHT22;602;48.000;7.840;2022-07-01T15:25:47;25.60;99.90
1225;DHT22;602;48.000;7.840;2022-07-01T15:28:14;25.60;99.90
1225;DHT22;602;48.000;7.840;2022-07-01T15:30:40;25.60;99.90
1225;DHT22;602;48.000;7.840;2022-07-01T15:33:07;25.50;99.90
1225;DHT22;602;48.000;7.840;2022-07-01T15:35:36;25.50;99.90
1225;DHT22;602;48.000;7.840;2022-07-01T15:38:02;25.60;99.90
1225;DHT22;602;48.000;7.840;2022-07-01T15:40:30;25.50;99.90
1225;DHT22;602;48.000;7.840;2022-07-01T15:42:57;25.50;99.90
1225;DHT22;602;48.000;7.840;2022-07-01T15:45:24;25.20;99.90
1225;DHT22;602;48.000;7.840;2022-07-01T15:47:52;25.30;99.90
1225;DHT22;602;48.000;7.840;2022-07-01T15:50:38;25.20;99.90
1225;DHT22;602;48.000;7.840;2022-07-01T15:53:06;25.30;99.90
1225;DHT22;602;48.000;7.840;2022-07-01T15:55:33;25.30;99.90
1225;DHT22;602;48.000;7.840;2022-07-01T15:58:02;25.20;99.90
1225;DHT22;602;48.000;7.840;2022-07-01T16:00:29;25.20;99.90
1225;DHT22;602;48.000;7.840;2022-07-01T16:02:57;25.30;99.90
1225;DHT22;602;48.000;7.840;2022-07-01T16:05:24;25.30;99.90
1225;DHT22;602;48.000;7.840;2022-07-01T16:07:57;25.20;99.90
1225;DHT22;602;48.000;7.840;2022-07-01T16:10:40;25.20;99.90
1225;DHT22;602;48.000;7.840;2022-07-01T16:13:10;25.10;99.90
1225;DHT22;602;48.000;7.840;2022-07-01T16:15:38;25.00;99.90
1225;DHT22;602;48.000;7.840;2022-07-01T16:18:07;25.10;99.90
1225;DHT22;602;48.000;7.840;2022-07-01T16:20:38;25.00;99.90
1225;DHT22;602;48.000;7.840;2022-07-01T16:23:08;24.90;99.90
1225;DHT22;602;48.000;7.840;2022-07-01T16:25:38;24.80;99.90
1225;DHT22;602;48.000;7.840;2022-07-01T16:28:06;24.80;99.90
1225;DHT22;602;48.000;7.840;2022-07-01T16:30:35;24.80;99.90
1225;DHT22;602;48.000;7.840;2022-07-01T16:33:03;24.70;99.90